Time;durP1;ratioP1;P1;durP2;ratioP2;P2;SDS_P1;SDS_P2;PMS_P1;PMS_P2;Temp;Humidity;BMP_temperature;BMP_pressure;BME280_temperature;BME280_humidity;BME280_pressure;Samples;Min_cycle;Max_cycle;Signal;HPM_P1;HPM_P2
2022/11/28 00:00:04;;;;;;;13.50;7.57;;;0.60;99.90;;;;;;5093439;28;20670;-76
2022/11/28 00:02:31;;;;;;;11.53;6.83;;;0.50;99.90;;;;;;5090677;28;20609;-76
2022/11/28 00:04:58;;;;;;;9.63;6.83;;;0.50;99.90;;;;;;5093160;28;20515;-76
2022/11/28 00:07:25;;;;;;;11.60;7.60;;;0.50;99.90;;;;;;5093658;28;20542;-77
2022/11/28 00:09:52;;;;;;;14.07;8.87;;;0.50;99.90;;;;;;5093429;28;20494;-77
2022/11/28 00:12:20;;;;;;;11.70;7.90;;;0.50;99.90;;;;;;5094912;27;20481;-77
2022/11/28 00:14:47;;;;;;;13.40;6.67;;;0.40;99.90;;;;;;5094018;28;20497;-77
2022/11/28 00:17:14;;;;;;;16.17;7.60;;;0.30;99.90;;;;;;5094757;28;20548;-76
2022/11/28 00:19:41;;;;;;;14.73;7.87;;;0.40;99.90;;;;;;5097102;28;20481;-76
2022/11/28 00:22:08;;;;;;;9.60;7.07;;;0.40;99.90;;;;;;5085885;28;20515;-77
2022/11/28 00:24:35;;;;;;;12.73;8.33;;;0.40;99.90;;;;;;5095671;27;20489;-77
2022/11/28 00:27:03;;;;;;;14.90;8.10;;;0.40;99.90;;;;;;5099120;28;20501;-76
2022/11/28 00:29:31;;;;;;;15.32;9.07;;;0.50;99.90;;;;;;5098519;28;21011;-77
2022/11/28 00:31:58;;;;;;;13.87;8.03;;;0.50;99.90;;;;;;5098471;28;20231;-77
2022/11/28 00:34:25;;;;;;;11.80;8.10;;;0.40;99.90;;;;;;5101671;28;20515;-77
2022/11/28 00:36:52;;;;;;;13.07;7.70;;;0.60;99.90;;;;;;5099150;27;20559;-77
2022/11/28 00:39:19;;;;;;;15.88;8.55;;;0.50;99.90;;;;;;5094685;28;20502;-77
2022/11/28 00:41:46;;;;;;;11.35;8.60;;;0.50;99.90;;;;;;5096122;28;20210;-77
2022/11/28 00:44:13;;;;;;;19.77;8.20;;;0.50;99.90;;;;;;5096000;28;20234;-76
2022/11/28 00:46:42;;;;;;;11.73;8.10;;;0.50;99.90;;;;;;5100857;28;20615;-76
2022/11/28 00:49:09;;;;;;;13.13;8.60;;;0.40;99.90;;;;;;5098591;28;20473;-77
2022/11/28 00:51:37;;;;;;;16.02;11.27;;;0.50;99.90;;;;;;5093528;28;20986;-76
2022/11/28 00:54:05;;;;;;;16.67;9.75;;;0.50;99.90;;;;;;5096414;28;20223;-77
2022/11/28 00:56:34;;;;;;;18.73;9.70;;;0.50;99.90;;;;;;5093861;28;20627;-77
2022/11/28 00:59:02;;;;;;;17.30;10.32;;;0.50;99.90;;;;;;5100603;28;20457;-76
2022/11/28 01:01:32;;;;;;;19.08;11.30;;;0.40;99.90;;;;;;5094584;28;20199;-77
2022/11/28 01:04:02;;;;;;;15.60;9.70;;;0.40;99.90;;;;;;5087781;28;20236;-77
2022/11/28 01:06:32;;;;;;;15.00;9.35;;;0.40;99.90;;;;;;5097230;28;20459;-77
2022/11/28 01:09:01;;;;;;;12.30;8.77;;;0.40;99.90;;;;;;5088308;28;20823;-76
2022/11/28 01:11:29;;;;;;;12.30;9.17;;;0.40;99.90;;;;;;5089431;28;20580;-76
2022/11/28 01:13:57;;;;;;;19.23;11.70;;;0.40;99.90;;;;;;5088919;28;20567;-76
2022/11/28 01:16:24;;;;;;;18.67;11.10;;;0.40;99.90;;;;;;5095497;28;20472;-76
2022/11/28 01:18:52;;;;;;;15.10;10.73;;;0.40;99.90;;;;;;5095321;28;20689;-76
2022/11/28 01:21:21;;;;;;;17.87;10.83;;;0.50;99.90;;;;;;5092879;28;20909;-76
2022/11/28 01:23:48;;;;;;;19.63;10.37;;;0.50;99.90;;;;;;5091282;28;20549;-77
2022/11/28 01:26:18;;;;;;;21.33;12.33;;;0.50;99.90;;;;;;5097166;28;20483;-76
2022/11/28 01:28:45;;;;;;;20.27;11.37;;;0.50;99.90;;;;;;5092940;28;20478;-77
2022/11/28 01:31:15;;;;;;;17.67;10.27;;;0.50;99.90;;;;;;5091081;28;20989;-78
2022/11/28 01:33:42;;;;;;;15.50;9.53;;;0.50;99.90;;;;;;5087692;28;20876;-77
2022/11/28 01:36:10;;;;;;;19.60;11.37;;;0.50;99.90;;;;;;5093129;28;20533;-78
2022/11/28 01:38:39;;;;;;;14.27;11.20;;;0.50;99.90;;;;;;5091552;28;20477;-77
2022/11/28 01:41:06;;;;;;;19.30;10.53;;;0.50;99.90;;;;;;5096585;28;20262;-78
2022/11/28 01:43:34;;;;;;;14.93;11.90;;;0.60;99.90;;;;;;5098735;28;20488;-77
2022/11/28 01:46:01;;;;;;;20.10;10.83;;;0.50;99.90;;;;;;5086906;28;20496;-77
2022/11/28 01:48:33;;;;;;;20.77;12.23;;;0.50;99.90;;;;;;5089594;28;20495;-77
2022/11/28 01:51:05;;;;;;;17.63;12.00;;;0.50;99.90;;;;;;5086228;28;20261;-77
2022/11/28 01:53:34;;;;;;;19.02;11.93;;;0.50;99.90;;;;;;5086065;28;20491;-78
2022/11/28 01:56:07;;;;;;;19.63;12.50;;;0.60;99.90;;;;;;5093702;28;20223;-78
2022/11/28 01:58:36;;;;;;;12.97;10.80;;;0.60;99.90;;;;;;5091647;28;20454;-77
2022/11/28 02:01:05;;;;;;;18.87;11.40;;;0.60;99.90;;;;;;5096140;28;20638;-78
2022/11/28 02:03:41;;;;;;;17.30;11.80;;;0.60;99.90;;;;;;5093301;28;20959;-78
2022/11/28 02:06:09;;;;;;;21.17;11.40;;;0.50;99.90;;;;;;5085033;28;20486;-77
2022/11/28 02:08:36;;;;;;;21.65;13.32;;;0.50;99.90;;;;;;5091386;28;20493;-77
2022/11/28 02:11:29;;;;;;;17.60;11.23;;;0.50;99.90;;;;;;5089988;28;20208;-78
2022/11/28 02:14:06;;;;;;;25.67;11.17;;;0.40;99.90;;;;;;5090390;28;20799;-77
2022/11/28 02:16:52;;;;;;;20.70;13.23;;;0.50;99.90;;;;;;5090578;28;20516;-78
2022/11/28 02:20:02;;;;;;;17.20;11.50;;;0.50;99.90;;;;;;5093329;28;20487;-78
2022/11/28 02:22:34;;;;;;;19.00;11.60;;;0.60;99.90;;;;;;5078631;28;20469;-77
2022/11/28 02:25:22;;;;;;;19.93;12.10;;;0.60;99.90;;;;;;5095464;28;20962;-78
2022/11/28 02:28:37;;;;;;;17.50;12.30;;;0.60;99.90;;;;;;5084794;28;20524;-78
2022/11/28 02:31:17;;;;;;;19.90;11.70;;;0.60;99.90;;;;;;5056109;28;20470;-78
2022/11/28 02:33:48;;;;;;;24.80;12.80;;;0.60;99.90;;;;;;5091921;28;20513;-78
2022/11/28 02:36:20;;;;;;;19.80;12.97;;;0.60;99.90;;;;;;5088461;28;20240;-78
2022/11/28 02:38:57;;;;;;;19.90;12.30;;;0.70;99.90;;;;;;5091112;28;20466;-78
2022/11/28 02:41:33;;;;;;;21.27;12.87;;;0.60;99.90;;;;;;5083433;28;20513;-78
2022/11/28 02:44:08;;;;;;;22.47;13.13;;;0.60;99.90;;;;;;5088057;28;20466;-78
2022/11/28 02:46:42;;;;;;;22.13;10.93;;;0.70;99.90;;;;;;5091607;28;20805;-77
2022/11/28 02:49:15;;;;;;;17.83;10.35;;;0.70;99.90;;;;;;5086122;28;20458;-78
2022/11/28 02:51:47;;;;;;;22.90;14.07;;;0.70;99.90;;;;;;5093258;28;20682;-78
2022/11/28 02:54:16;;;;;;;21.40;11.87;;;0.70;99.90;;;;;;5082000;28;20563;-78
2022/11/28 02:56:48;;;;;;;24.97;13.07;;;0.70;99.90;;;;;;5095673;28;20881;-78
2022/11/28 02:59:44;;;;;;;23.30;12.20;;;0.70;99.90;;;;;;5089529;28;21215;-78
2022/11/28 03:02:15;;;;;;;18.90;13.13;;;0.70;99.90;;;;;;5092454;28;20834;-78
2022/11/28 03:04:50;;;;;;;15.77;11.20;;;0.70;99.90;;;;;;5096068;28;20489;-78
2022/11/28 03:07:31;;;;;;;21.10;12.83;;;0.70;99.90;;;;;;5102953;28;20465;-78
2022/11/28 03:10:08;;;;;;;21.13;12.30;;;0.80;99.90;;;;;;5098223;28;20481;-78
2022/11/28 03:12:49;;;;;;;18.67;13.07;;;0.80;99.90;;;;;;5099014;28;20905;-78
2022/11/28 03:15:20;;;;;;;19.40;13.60;;;0.80;99.90;;;;;;5085916;28;20825;-78
2022/11/28 03:17:54;;;;;;;16.20;10.60;;;0.70;99.90;;;;;;5091966;28;20542;-78
2022/11/28 03:20:28;;;;;;;20.13;11.67;;;0.80;99.90;;;;;;5094668;28;20837;-78
2022/11/28 03:23:12;;;;;;;23.13;15.53;;;0.90;99.90;;;;;;5089067;28;20490;-78
2022/11/28 03:25:49;;;;;;;23.70;13.87;;;0.90;99.90;;;;;;5097384;28;20588;-77
2022/11/28 03:28:23;;;;;;;20.50;13.30;;;0.90;99.90;;;;;;5091283;28;20885;-78
2022/11/28 03:30:54;;;;;;;21.03;12.73;;;0.90;99.90;;;;;;5095246;28;20546;-77
2022/11/28 03:33:25;;;;;;;27.93;13.33;;;0.90;99.90;;;;;;5086736;28;20569;-77
2022/11/28 03:35:58;;;;;;;21.75;13.80;;;0.90;99.90;;;;;;5086589;28;20508;-77
2022/11/28 03:38:31;;;;;;;20.67;12.70;;;0.90;99.90;;;;;;5090449;28;20234;-78
2022/11/28 03:41:02;;;;;;;20.27;13.00;;;0.90;99.90;;;;;;5098286;28;20487;-78
2022/11/28 03:43:34;;;;;;;23.00;12.48;;;0.90;99.90;;;;;;5083128;28;20942;-78
2022/11/28 03:46:06;;;;;;;17.73;10.90;;;0.90;99.90;;;;;;5089982;28;20398;-78
2022/11/28 03:48:38;;;;;;;16.40;12.10;;;0.90;99.90;;;;;;5091438;28;21005;-78
2022/11/28 03:51:12;;;;;;;23.35;13.05;;;0.90;99.90;;;;;;5090260;28;20456;-77
2022/11/28 03:53:46;;;;;;;21.67;14.10;;;0.80;99.90;;;;;;5100924;27;20228;-77
2022/11/28 03:56:19;;;;;;;17.77;12.30;;;0.80;99.90;;;;;;5087658;28;20892;-77
2022/11/28 03:58:54;;;;;;;18.50;11.82;;;0.90;99.90;;;;;;5090219;28;20523;-77
2022/11/28 04:01:29;;;;;;;21.40;12.73;;;1.00;99.90;;;;;;5094470;28;20319;-77
2022/11/28 04:04:14;;;;;;;21.52;13.13;;;0.90;99.90;;;;;;5088433;28;20496;-77
2022/11/28 04:06:52;;;;;;;26.60;13.23;;;1.00;99.90;;;;;;5093256;28;20601;-78
2022/11/28 04:09:26;;;;;;;16.88;12.68;;;1.00;99.90;;;;;;5097137;28;20203;-77
2022/11/28 04:11:56;;;;;;;19.63;13.00;;;1.10;99.90;;;;;;5103642;28;20246;-77
2022/11/28 04:14:31;;;;;;;23.23;12.60;;;1.00;99.90;;;;;;5091662;28;20320;-77
2022/11/28 04:17:04;;;;;;;20.70;11.50;;;1.00;99.90;;;;;;5097501;28;20611;-78
2022/11/28 04:19:35;;;;;;;17.50;9.97;;;1.00;99.90;;;;;;5098259;28;20489;-77
2022/11/28 04:22:09;;;;;;;18.00;10.88;;;1.00;99.90;;;;;;5090002;28;21053;-77
2022/11/28 04:24:40;;;;;;;18.13;11.20;;;1.00;99.90;;;;;;5088385;28;20262;-77
2022/11/28 04:27:11;;;;;;;19.10;12.13;;;1.10;99.90;;;;;;5089868;28;20501;-77
2022/11/28 04:29:43;;;;;;;24.63;10.77;;;1.10;99.90;;;;;;5090923;28;20694;-77
2022/11/28 04:32:12;;;;;;;17.03;12.27;;;1.20;99.90;;;;;;5094160;28;20492;-77
2022/11/28 04:34:41;;;;;;;20.53;12.73;;;1.10;99.90;;;;;;5092171;28;20536;-77
2022/11/28 04:37:13;;;;;;;15.00;10.30;;;1.20;99.90;;;;;;5090666;28;20561;-77
2022/11/28 04:39:43;;;;;;;15.57;9.33;;;1.20;99.90;;;;;;5089841;28;20466;-77
2022/11/28 04:42:15;;;;;;;19.50;12.00;;;1.30;99.90;;;;;;5094802;28;20499;-77
2022/11/28 04:44:47;;;;;;;14.53;9.60;;;1.20;99.90;;;;;;5099733;28;20476;-78
2022/11/28 04:47:14;;;;;;;19.43;10.40;;;1.20;99.90;;;;;;5085438;28;20490;-77
2022/11/28 04:49:41;;;;;;;17.03;11.60;;;1.20;99.90;;;;;;5095757;28;20905;-78
2022/11/28 04:52:14;;;;;;;16.90;9.70;;;1.20;99.90;;;;;;5095511;27;20496;-77
2022/11/28 04:54:50;;;;;;;18.60;10.30;;;1.20;99.90;;;;;;5087171;28;20663;-77
2022/11/28 04:57:21;;;;;;;18.90;9.03;;;1.20;99.90;;;;;;5088687;28;20493;-78
2022/11/28 04:59:49;;;;;;;18.33;10.30;;;1.20;99.90;;;;;;5093352;28;20490;-77
2022/11/28 05:02:19;;;;;;;17.30;9.70;;;1.20;99.90;;;;;;5096128;28;20495;-77
2022/11/28 05:04:46;;;;;;;14.37;9.40;;;1.20;99.90;;;;;;5075358;28;20631;-78
2022/11/28 05:07:14;;;;;;;13.83;9.67;;;1.20;99.90;;;;;;5080264;28;20489;-77
2022/11/28 05:09:41;;;;;;;14.23;9.43;;;1.20;99.90;;;;;;5077006;28;20552;-77
2022/11/28 05:12:08;;;;;;;13.67;9.07;;;1.20;99.90;;;;;;5075598;28;20589;-77
2022/11/28 05:14:35;;;;;;;20.40;11.67;;;1.20;99.90;;;;;;5092972;28;20490;-78
2022/11/28 05:17:02;;;;;;;17.77;10.17;;;1.30;99.90;;;;;;5079306;28;20554;-77
2022/11/28 05:19:29;;;;;;;19.97;10.27;;;1.30;99.90;;;;;;5073405;28;20611;-77
2022/11/28 05:21:56;;;;;;;11.10;9.20;;;1.30;99.90;;;;;;5075017;28;20567;-77
2022/11/28 05:24:24;;;;;;;12.63;9.00;;;1.20;99.90;;;;;;5073004;28;20542;-78
2022/11/28 05:26:51;;;;;;;12.23;8.30;;;1.30;99.90;;;;;;5079987;28;20455;-78
2022/11/28 05:29:18;;;;;;;12.70;6.80;;;1.10;99.90;;;;;;5083889;28;20858;-77
2022/11/28 05:31:45;;;;;;;12.00;8.77;;;1.10;99.90;;;;;;5077782;28;20588;-78
2022/11/28 05:34:12;;;;;;;13.30;8.30;;;1.10;99.90;;;;;;5075845;28;20565;-77
2022/11/28 05:36:39;;;;;;;12.87;8.17;;;1.10;99.90;;;;;;5073099;28;20531;-78
2022/11/28 05:39:06;;;;;;;14.67;9.10;;;1.10;99.90;;;;;;5073885;28;21490;-78
2022/11/28 05:41:34;;;;;;;14.10;8.70;;;1.10;99.90;;;;;;5086008;27;20561;-77
2022/11/28 05:44:01;;;;;;;11.00;7.77;;;1.00;99.90;;;;;;5075198;27;20547;-77
2022/11/28 05:46:29;;;;;;;9.67;7.33;;;1.00;99.90;;;;;;5072261;28;20548;-77
2022/11/28 05:48:57;;;;;;;8.10;7.17;;;0.90;99.90;;;;;;5074283;28;21142;-77
2022/11/28 05:51:24;;;;;;;9.43;4.87;;;0.90;99.90;;;;;;5073545;28;21001;-77
2022/11/28 05:53:51;;;;;;;8.37;5.80;;;0.90;99.90;;;;;;5073261;27;20489;-77
2022/11/28 05:56:21;;;;;;;7.93;6.20;;;0.90;99.90;;;;;;5074195;28;20555;-77
2022/11/28 05:58:50;;;;;;;8.53;7.67;;;0.80;99.90;;;;;;5076529;28;20470;-77
2022/11/28 06:01:19;;;;;;;13.93;7.07;;;0.80;99.90;;;;;;5071240;28;20643;-78
2022/11/28 06:03:47;;;;;;;10.87;6.80;;;0.80;99.90;;;;;;5073869;28;20557;-77
2022/11/28 06:06:16;;;;;;;7.40;5.60;;;0.70;99.90;;;;;;5073474;28;20564;-77
2022/11/28 06:08:43;;;;;;;17.60;7.30;;;0.90;99.90;;;;;;5089701;28;20469;-77
2022/11/28 06:11:13;;;;;;;8.10;6.93;;;0.80;99.90;;;;;;5093967;28;20493;-78
2022/11/28 06:13:40;;;;;;;12.68;8.15;;;0.90;99.90;;;;;;5088527;28;20490;-77
2022/11/28 06:16:10;;;;;;;13.15;8.77;;;0.90;99.90;;;;;;5090058;28;20267;-77
2022/11/28 06:18:37;;;;;;;10.43;6.87;;;0.90;99.90;;;;;;5088407;27;20239;-77
2022/11/28 06:21:06;;;;;;;10.10;6.87;;;0.90;99.90;;;;;;5093907;28;21076;-77
2022/11/28 06:23:33;;;;;;;10.63;6.50;;;0.90;99.90;;;;;;5093989;28;20959;-77
2022/11/28 06:26:05;;;;;;;13.77;8.10;;;1.00;99.90;;;;;;5094308;28;20583;-77
2022/11/28 06:28:32;;;;;;;10.77;8.27;;;1.10;99.90;;;;;;5088276;28;20589;-77
2022/11/28 06:30:59;;;;;;;8.43;7.30;;;1.00;99.90;;;;;;5083749;28;20987;-77
2022/11/28 06:33:27;;;;;;;11.40;8.40;;;1.10;99.90;;;;;;5081626;28;20521;-77
2022/11/28 06:35:59;;;;;;;18.73;9.30;;;1.00;99.90;;;;;;5084450;28;20545;-77
2022/11/28 06:38:26;;;;;;;12.53;9.10;;;1.00;99.90;;;;;;5074201;28;20475;-78
2022/11/28 06:40:56;;;;;;;16.30;9.80;;;1.10;99.90;;;;;;5077028;28;20549;-78
2022/11/28 06:43:23;;;;;;;14.53;10.47;;;1.00;99.90;;;;;;5074600;28;20589;-79
2022/11/28 06:45:50;;;;;;;13.30;8.50;;;1.10;99.90;;;;;;5070920;28;21279;-79
2022/11/28 06:48:17;;;;;;;13.07;9.40;;;1.20;99.90;;;;;;5072880;28;20619;-80
2022/11/28 06:50:46;;;;;;;14.10;9.93;;;1.20;99.90;;;;;;5089791;28;20513;-79
2022/11/28 06:53:13;;;;;;;13.93;10.13;;;1.20;99.90;;;;;;5074228;28;20636;-79
2022/11/28 06:55:40;;;;;;;11.87;9.17;;;1.20;99.90;;;;;;5074543;28;20466;-79
2022/11/28 06:58:07;;;;;;;13.30;8.30;;;1.30;99.90;;;;;;5086966;28;20554;-79
2022/11/28 07:00:35;;;;;;;15.50;7.53;;;1.40;99.90;;;;;;5077682;28;20675;-79
2022/11/28 07:03:02;;;;;;;13.30;8.20;;;1.40;99.90;;;;;;5076624;28;20454;-79
2022/11/28 07:05:29;;;;;;;14.07;7.53;;;1.40;99.90;;;;;;5081534;28;20619;-79
2022/11/28 07:07:58;;;;;;;13.17;8.07;;;1.40;99.90;;;;;;5088355;28;20486;-79
2022/11/28 07:10:26;;;;;;;11.70;8.67;;;1.40;99.90;;;;;;5086725;28;20486;-79
2022/11/28 07:12:54;;;;;;;14.30;8.83;;;1.40;99.90;;;;;;5091908;28;20494;-79
2022/11/28 07:15:21;;;;;;;13.80;9.03;;;1.50;99.90;;;;;;5086177;28;20482;-79
2022/11/28 07:17:48;;;;;;;16.53;10.90;;;1.50;99.90;;;;;;5085109;28;20564;-79
2022/11/28 07:20:15;;;;;;;16.37;10.60;;;1.50;99.90;;;;;;5085331;28;20490;-79
2022/11/28 07:22:43;;;;;;;13.50;9.67;;;1.50;99.90;;;;;;5092071;28;20496;-80
2022/11/28 07:25:11;;;;;;;18.30;10.87;;;1.50;99.90;;;;;;5097581;28;20465;-79
2022/11/28 07:27:38;;;;;;;12.27;9.73;;;1.50;99.90;;;;;;5082339;28;20504;-80
2022/11/28 07:30:07;;;;;;;17.20;10.63;;;1.60;99.90;;;;;;5086606;28;20850;-79
2022/11/28 07:32:34;;;;;;;16.20;9.57;;;1.60;99.90;;;;;;5087276;28;20531;-80
2022/11/28 07:35:01;;;;;;;21.70;15.00;;;1.70;99.90;;;;;;5085781;28;21209;-80
2022/11/28 07:37:28;;;;;;;113.70;71.80;;;1.60;99.90;;;;;;5085183;28;20547;-80
2022/11/28 07:39:54;;;;;;;31.53;18.50;;;1.60;99.90;;;;;;5090949;28;20865;-80
2022/11/28 07:42:23;;;;;;;29.63;18.93;;;1.50;99.90;;;;;;5093221;28;20482;-80
2022/11/28 07:44:50;;;;;;;49.17;33.40;;;1.40;99.90;;;;;;5084323;27;20493;-80
2022/11/28 07:47:17;;;;;;;19.03;14.23;;;1.50;99.90;;;;;;5088577;28;20540;-78
2022/11/28 07:49:45;;;;;;;77.10;46.43;;;1.60;99.90;;;;;;5088543;28;20867;-78
2022/11/28 07:52:11;;;;;;;29.47;18.23;;;1.70;99.90;;;;;;5098247;27;20506;-78
2022/11/28 07:54:38;;;;;;;20.10;14.70;;;1.60;99.90;;;;;;5093785;28;20575;-78
2022/11/28 07:57:05;;;;;;;46.63;31.53;;;1.60;99.90;;;;;;5101193;27;20468;-77
2022/11/28 07:59:34;;;;;;;58.17;40.90;;;1.60;99.90;;;;;;5088244;28;21021;-78
2022/11/28 08:02:01;;;;;;;15.50;10.00;;;1.60;99.90;;;;;;5093991;28;20552;-78
2022/11/28 08:04:27;;;;;;;17.20;11.30;;;1.60;99.90;;;;;;5088929;28;20519;-79
2022/11/28 08:06:55;;;;;;;55.17;44.97;;;1.40;99.90;;;;;;5089081;28;20550;-80
2022/11/28 08:09:22;;;;;;;15.80;10.63;;;1.50;99.90;;;;;;5092267;28;20465;-78
2022/11/28 08:11:50;;;;;;;10.97;9.47;;;1.70;99.90;;;;;;5093313;28;20494;-78
2022/11/28 08:14:17;;;;;;;18.17;10.03;;;1.90;99.90;;;;;;5103258;28;20531;-78
2022/11/28 08:16:45;;;;;;;16.10;14.07;;;2.00;99.90;;;;;;5098821;28;20562;-78
2022/11/28 08:19:12;;;;;;;19.93;16.53;;;2.00;99.90;;;;;;5083758;28;20493;-78
2022/11/28 08:21:39;;;;;;;22.30;19.67;;;2.10;99.90;;;;;;5089036;28;20487;-78
2022/11/28 08:24:07;;;;;;;13.20;9.53;;;2.20;99.90;;;;;;5090593;28;20446;-78
2022/11/28 08:26:35;;;;;;;18.30;12.90;;;2.30;99.90;;;;;;5087707;28;20470;-78
2022/11/28 08:29:03;;;;;;;16.27;12.67;;;2.30;99.90;;;;;;5092012;28;20727;-78
2022/11/28 08:31:32;;;;;;;13.47;9.43;;;2.50;99.90;;;;;;5093688;28;20912;-78
2022/11/28 08:34:03;;;;;;;13.47;10.47;;;2.40;99.90;;;;;;5088413;28;21002;-78
2022/11/28 08:36:30;;;;;;;15.90;11.30;;;2.40;99.90;;;;;;5100874;28;20536;-78
2022/11/28 08:38:59;;;;;;;13.83;10.63;;;2.50;99.90;;;;;;5095701;28;20500;-78
2022/11/28 08:41:25;;;;;;;11.13;8.13;;;2.50;99.90;;;;;;5083959;28;20490;-78
2022/11/28 08:43:53;;;;;;;11.13;8.20;;;2.40;99.90;;;;;;5095389;28;20549;-78
2022/11/28 08:46:21;;;;;;;8.13;6.80;;;2.50;99.90;;;;;;5087539;28;20501;-78
2022/11/28 08:48:49;;;;;;;10.50;8.37;;;2.40;99.90;;;;;;5086475;28;20521;-78
2022/11/28 08:51:20;;;;;;;10.40;8.83;;;2.50;99.90;;;;;;5085918;28;20474;-78
2022/11/28 08:53:47;;;;;;;10.60;9.10;;;2.50;99.90;;;;;;5083638;28;20518;-77
2022/11/28 08:56:14;;;;;;;9.37;6.70;;;2.40;99.90;;;;;;5086583;28;20505;-78
2022/11/28 08:58:41;;;;;;;6.30;5.70;;;2.40;99.90;;;;;;5090489;28;20488;-78
2022/11/28 09:01:15;;;;;;;20.50;13.60;;;2.60;99.90;;;;;;5088174;28;20467;-78
2022/11/28 09:03:42;;;;;;;16.47;9.53;;;2.60;99.90;;;;;;5084292;28;20492;-78
2022/11/28 09:06:09;;;;;;;15.30;10.17;;;2.70;99.90;;;;;;5093338;28;20449;-77
2022/11/28 09:08:38;;;;;;;7.10;5.47;;;2.70;99.90;;;;;;5093628;28;20490;-77
2022/11/28 09:11:07;;;;;;;9.47;6.03;;;2.70;99.90;;;;;;5102055;27;20574;-77
2022/11/28 09:13:34;;;;;;;10.07;7.20;;;2.80;99.90;;;;;;5087801;28;20870;-78
2022/11/28 09:16:01;;;;;;;8.50;5.30;;;2.80;99.90;;;;;;5088061;28;20490;-77
2022/11/28 09:18:28;;;;;;;8.37;6.80;;;2.80;99.90;;;;;;5090999;27;21032;-77
2022/11/28 09:20:59;;;;;;;11.13;6.83;;;2.90;99.90;;;;;;5086395;28;20767;-78
2022/11/28 09:23:26;;;;;;;10.27;7.00;;;2.90;99.90;;;;;;5087263;27;20551;-79
2022/11/28 09:25:54;;;;;;;9.80;6.93;;;2.90;99.90;;;;;;5089603;28;20787;-78
2022/11/28 09:28:21;;;;;;;9.90;6.37;;;2.90;99.90;;;;;;5094325;28;20564;-78
2022/11/28 09:30:48;;;;;;;6.47;5.83;;;3.00;99.90;;;;;;5090201;28;20943;-79
2022/11/28 09:33:15;;;;;;;8.20;5.83;;;3.00;99.90;;;;;;5097581;28;20493;-78
2022/11/28 09:35:42;;;;;;;7.40;6.20;;;3.00;99.90;;;;;;5092794;28;20509;-79
2022/11/28 09:38:09;;;;;;;9.27;7.47;;;2.80;99.90;;;;;;5089800;28;20542;-78
2022/11/28 09:40:38;;;;;;;14.63;7.90;;;2.90;99.90;;;;;;5087897;28;20499;-78
2022/11/28 09:43:15;;;;;;;12.53;8.80;;;2.80;99.90;;;;;;5088412;28;20941;-78
2022/11/28 09:45:43;;;;;;;13.70;8.23;;;2.80;99.90;;;;;;5087954;28;20494;-78
2022/11/28 09:48:25;;;;;;;14.87;9.03;;;2.70;99.90;;;;;;5097105;28;20458;-78
2022/11/28 09:50:55;;;;;;;14.47;9.40;;;2.60;99.90;;;;;;5087290;28;20482;-78
2022/11/28 09:53:28;;;;;;;11.53;9.00;;;2.60;99.90;;;;;;5086477;28;20509;-79
2022/11/28 09:55:59;;;;;;;12.73;8.70;;;2.50;99.90;;;;;;5092925;28;20565;-77
2022/11/28 09:58:36;;;;;;;13.73;8.53;;;2.60;99.90;;;;;;5087003;28;20875;-77
2022/11/28 10:01:12;;;;;;;12.10;9.17;;;2.80;99.90;;;;;;5092407;28;20492;-79
2022/11/28 10:03:43;;;;;;;10.13;8.60;;;2.80;99.90;;;;;;5075214;28;20548;-79
2022/11/28 10:06:20;;;;;;;9.00;8.10;;;2.80;99.90;;;;;;5083139;28;20502;-79
2022/11/28 10:09:21;;;;;;;9.50;8.17;;;2.80;99.90;;;;;;5090514;28;20489;-79
2022/11/28 10:11:59;;;;;;;8.73;6.90;;;2.90;99.90;;;;;;5096382;27;20491;-79
2022/11/28 10:14:54;;;;;;;10.13;8.03;;;3.00;99.90;;;;;;5097272;28;20566;-79
2022/11/28 10:17:32;;;;;;;11.27;7.63;;;3.10;99.90;;;;;;5083226;28;20451;-78
2022/11/28 10:20:04;;;;;;;13.10;8.57;;;3.10;99.90;;;;;;5087781;28;20494;-79
2022/11/28 10:22:37;;;;;;;11.60;8.80;;;3.10;99.90;;;;;;5094434;28;20501;-78
2022/11/28 10:25:11;;;;;;;13.13;10.10;;;3.10;99.90;;;;;;5101725;28;20473;-78
2022/11/28 10:27:40;;;;;;;11.37;8.90;;;3.20;99.90;;;;;;5092903;28;20474;-78
2022/11/28 10:30:17;;;;;;;13.67;9.43;;;3.10;99.90;;;;;;5093646;28;20466;-76
2022/11/28 10:32:51;;;;;;;11.07;9.07;;;3.20;99.90;;;;;;5096230;28;20442;-76
2022/11/28 10:35:25;;;;;;;9.60;7.47;;;3.30;99.90;;;;;;5084007;28;20918;-76
2022/11/28 10:37:53;;;;;;;13.00;9.47;;;3.40;99.90;;;;;;5091608;28;20464;-76
2022/11/28 10:40:27;;;;;;;13.97;9.87;;;3.30;99.90;;;;;;5094823;28;20628;-77
2022/11/28 10:43:00;;;;;;;11.20;8.00;;;3.30;99.90;;;;;;5086759;28;20863;-77
2022/11/28 10:45:34;;;;;;;11.10;8.37;;;3.20;99.90;;;;;;5095312;28;20478;-77
2022/11/28 10:48:14;;;;;;;63.93;38.33;;;3.10;99.90;;;;;;5096410;28;20513;-77
2022/11/28 10:50:50;;;;;;;11.43;8.83;;;3.10;99.90;;;;;;5090136;28;20477;-77
2022/11/28 10:53:28;;;;;;;11.77;9.67;;;3.20;99.90;;;;;;5094561;28;20817;-77
2022/11/28 10:56:09;;;;;;;11.33;8.17;;;3.20;99.90;;;;;;5088312;28;20481;-77
2022/11/28 10:58:44;;;;;;;14.30;8.50;;;3.20;99.90;;;;;;5082514;28;20447;-77
2022/11/28 11:01:13;;;;;;;12.87;8.40;;;3.20;99.90;;;;;;5097476;28;20680;-77
2022/11/28 11:03:40;;;;;;;11.30;8.60;;;3.30;99.90;;;;;;5096115;28;20485;-76
2022/11/28 11:06:08;;;;;;;14.57;9.50;;;3.30;99.90;;;;;;5083592;28;21020;-77
2022/11/28 11:08:36;;;;;;;12.83;7.97;;;3.40;99.90;;;;;;5092238;28;20880;-76
2022/11/28 11:11:10;;;;;;;13.27;9.67;;;3.40;99.90;;;;;;5099075;28;20486;-76
2022/11/28 11:13:56;;;;;;;11.50;8.93;;;3.60;99.90;;;;;;5085402;28;20516;-76
2022/11/28 11:16:24;;;;;;;17.70;10.73;;;3.60;99.90;;;;;;5084013;28;20940;-76
2022/11/28 11:18:53;;;;;;;16.10;9.43;;;3.50;99.90;;;;;;5097923;28;20804;-75
2022/11/28 11:21:22;;;;;;;11.53;8.63;;;3.40;99.90;;;;;;5092670;28;20997;-75
2022/11/28 11:24:09;;;;;;;12.40;10.30;;;3.40;99.90;;;;;;5101414;28;21009;-75
2022/11/28 11:26:40;;;;;;;19.87;13.17;;;3.60;99.90;;;;;;5090879;28;20864;-75
2022/11/28 11:29:19;;;;;;;13.63;10.97;;;3.50;99.90;;;;;;5101864;28;20477;-76
2022/11/28 11:31:51;;;;;;;10.23;9.13;;;3.60;99.90;;;;;;5095897;28;20477;-76
2022/11/28 11:34:20;;;;;;;10.83;8.17;;;3.60;99.90;;;;;;5091352;28;20470;-75
2022/11/28 11:36:47;;;;;;;11.90;8.50;;;3.80;99.90;;;;;;5096343;27;20546;-76
2022/11/28 11:39:21;;;;;;;10.60;8.00;;;3.80;99.90;;;;;;5093655;28;20831;-76
2022/11/28 11:41:49;;;;;;;11.23;8.73;;;3.90;99.90;;;;;;5087611;28;20477;-76
2022/11/28 11:44:33;;;;;;;17.47;12.30;;;3.90;99.90;;;;;;5094597;28;20489;-76
2022/11/28 11:47:04;;;;;;;14.67;8.73;;;3.90;99.90;;;;;;5094398;28;20867;-76
2022/11/28 11:49:34;;;;;;;9.47;7.87;;;3.90;99.90;;;;;;5085179;28;20486;-76
2022/11/28 11:52:03;;;;;;;11.10;8.30;;;3.80;99.90;;;;;;5101393;27;20494;-76
2022/11/28 11:54:30;;;;;;;10.17;7.93;;;3.90;99.90;;;;;;5097820;27;20500;-77
2022/11/28 11:56:58;;;;;;;15.40;9.03;;;3.80;99.90;;;;;;5098499;28;20508;-77
2022/11/28 11:59:31;;;;;;;10.97;7.50;;;3.80;99.90;;;;;;5089846;28;20464;-76
2022/11/28 12:02:02;;;;;;;10.50;7.67;;;3.90;99.90;;;;;;5086752;28;20557;-76
2022/11/28 12:04:33;;;;;;;16.70;11.30;;;3.70;99.90;;;;;;5093608;28;20481;-76
2022/11/28 12:07:05;;;;;;;18.97;11.60;;;3.80;99.90;;;;;;5094022;28;20573;-76
2022/11/28 12:09:38;;;;;;;11.13;9.07;;;3.90;99.90;;;;;;5102026;28;20450;-76
2022/11/28 12:12:12;;;;;;;9.80;6.73;;;3.90;99.90;;;;;;5090819;28;20502;-76
2022/11/28 12:14:38;;;;;;;11.67;9.07;;;3.70;99.90;;;;;;5084673;28;21039;-76
2022/11/28 12:17:23;;;;;;;14.50;11.80;;;3.80;99.90;;;;;;5097231;28;20537;-76
2022/11/28 12:20:03;;;;;;;9.10;5.97;;;4.00;99.90;;;;;;5097901;28;20505;-76
2022/11/28 12:22:42;;;;;;;9.60;8.03;;;4.00;99.90;;;;;;5092789;28;20970;-76
2022/11/28 12:25:16;;;;;;;13.77;9.23;;;4.10;99.90;;;;;;5093415;28;20489;-76
2022/11/28 12:27:56;;;;;;;7.77;6.77;;;4.00;99.90;;;;;;5100053;28;20497;-76
2022/11/28 12:30:40;;;;;;;10.17;7.10;;;4.10;99.90;;;;;;5095804;28;20538;-76
2022/11/28 12:33:26;;;;;;;9.33;8.37;;;4.00;99.90;;;;;;5091097;28;20498;-76
2022/11/28 12:36:06;;;;;;;10.93;7.73;;;4.10;99.90;;;;;;5087702;28;20522;-77
2022/11/28 12:38:58;;;;;;;10.23;7.70;;;4.10;99.90;;;;;;5095841;28;20485;-76
2022/11/28 12:41:46;;;;;;;8.97;7.70;;;4.00;99.90;;;;;;5093690;28;20489;-76
2022/11/28 12:44:22;;;;;;;11.40;7.53;;;4.00;99.90;;;;;;5089908;28;20847;-76
2022/11/28 12:47:02;;;;;;;14.10;9.77;;;4.20;99.90;;;;;;5098842;28;20519;-76
2022/11/28 12:49:39;;;;;;;10.20;8.43;;;4.20;99.90;;;;;;5087118;28;20466;-76
2022/11/28 12:52:22;;;;;;;10.83;7.27;;;4.20;99.90;;;;;;5097507;28;20621;-76
2022/11/28 12:55:03;;;;;;;9.43;7.80;;;4.20;99.90;;;;;;5091058;28;21034;-76
2022/11/28 12:57:36;;;;;;;10.13;7.20;;;4.10;99.90;;;;;;5090262;28;20485;-76
2022/11/28 13:00:06;;;;;;;10.20;8.03;;;4.10;99.90;;;;;;5088282;28;20558;-76
2022/11/28 13:02:43;;;;;;;11.30;6.70;;;4.20;99.90;;;;;;5093719;28;20577;-76